Date,TemperatureHighF,TemperatureAvgF,TemperatureLowF,DewpointHighF,DewpointAvgF,DewpointLowF,HumidityHigh,HumidityAvg,HumidityLow,PressureMaxIn,PressureMinIn,WindSpeedMaxMPH,WindSpeedAvgMPH,GustSpeedMaxMPH,PrecipitationSumIn
2013-8-1,83.8,73.9,67.9,75.0,70.7,66.0,100,91,58,30.03,29.82,6,1,0,0.31
2013-8-2,85.7,77.5,67.9,74.0,64.7,59.0,100,68,43,29.96,29.85,13,2,0,0.00
2013-8-3,77.0,70.9,67.4,69.0,66.6,64.0,94,86,64,29.98,29.92,16,1,0,0.07
2013-8-4,80.9,72.8,66.3,66.0,56.9,48.0,97,61,34,30.02,29.91,10,3,0,0.00
2013-8-5,80.9,71.0,60.4,60.0,55.5,49.0,89,60,36,30.11,30.02,6,0,0,0.00
2013-8-6,72.5,69.3,67.8,69.0,65.9,60.0,99,89,69,30.10,30.02,0,0,0,0.10
2013-8-7,81.2,74.5,69.1,75.0,71.1,68.0,99,90,74,30.09,30.01,7,1,0,0.02
2013-8-8,86.3,77.1,70.8,77.0,73.2,70.0,100,89,62,30.07,29.98,12,2,0,0.24
2013-8-9,88.8,80.9,75.8,78.0,74.5,71.0,100,82,56,29.99,29.86,13,3,0,0.27
2013-8-10,84.5,78.5,72.1,72.0,65.7,56.0,90,67,38,30.09,29.94,7,0,0,0.00
2013-8-11,84.1,76.5,69.9,69.0,66.8,64.0,94,73,53,30.13,30.02,7,0,0,0.00
2013-8-12,88.6,78.8,70.8,72.0,68.8,61.0,96,74,42,30.04,29.93,7,1,0,0.00
2013-8-13,85.3,78.1,73.7,76.0,70.9,61.0,100,80,52,29.92,29.74,11,2,0,0.12
2013-8-14,75.4,68.9,61.0,60.0,50.5,45.0,80,53,40,30.09,29.81,14,4,0,0.00
2013-8-15,78.8,68.4,57.6,56.0,49.6,40.0,84,54,28,30.20,30.10,7,1,0,0.00
2013-8-16,79.2,69.4,57.0,58.0,53.3,48.0,96,61,35,30.21,30.14,5,0,0,0.00
2013-8-17,80.1,70.9,59.0,63.0,57.5,54.0,96,65,42,30.28,30.21,3,0,0,0.00
2013-8-18,75.1,70.6,65.8,65.0,59.7,52.0,96,70,49,30.25,30.17,11,0,0,0.03
2013-8-19,76.3,70.0,62.7,67.0,64.2,62.0,99,82,67,30.19,30.08,6,1,0,0.00
2013-8-20,89.3,76.1,64.3,71.0,66.7,57.0,100,76,35,30.17,30.10,6,1,0,0.00
2013-8-21,88.2,78.6,69.9,76.0,71.1,68.0,99,80,51,30.20,30.07,11,1,0,0.00
2013-8-22,88.2,79.9,72.3,76.0,69.3,64.0,99,73,46,30.09,29.94,12,2,0,0.01
2013-8-23,78.5,73.5,64.7,66.0,62.8,55.0,95,70,53,30.12,29.94,10,1,0,0.00
2013-8-24,82.2,72.4,63.5,63.0,57.9,52.0,97,62,35,30.35,30.13,8,1,0,0.00
2013-8-25,80.9,70.9,59.3,65.0,56.4,46.0,100,65,34,30.43,30.28,10,0,0,0.00
2013-8-26,87.8,75.3,61.8,64.0,59.3,55.0,89,60,36,30.30,30.00,10,3,0,0.00
2013-8-27,89.9,80.5,71.6,73.0,68.0,64.0,91,67,47,29.99,29.88,11,2,0,0.09
2013-8-28,82.4,77.0,73.5,74.0,71.7,66.0,95,84,60,29.92,29.83,9,1,0,0.01
2013-8-29,85.1,77.3,72.5,73.0,69.9,65.0,99,79,52,30.04,29.85,10,1,0,0.00
2013-8-30,87.6,77.6,70.1,72.0,68.6,65.0,96,76,50,30.05,29.89,12,2,0,0.00
2013-8-31,90.7,80.2,70.8,75.0,70.5,64.0,98,75,42,29.91,29.80,12,2,0,0.00